Time;durP1;ratioP1;P1;durP2;ratioP2;P2;SDS_P1;SDS_P2;PMS_P1;PMS_P2;Temp;Humidity;BMP_temperature;BMP_pressure;BME280_temperature;BME280_humidity;BME280_pressure;Samples;Min_cycle;Max_cycle;Signal;HPM_P1;HPM_P2
2022/07/03 00:02:26;;;;;;;15.57;8.60;;;;;;;;;;10439342;28;20017;-75
2022/07/03 00:07:27;;;;;;;12.67;8.33;;;;;;;;;;10430555;28;20043;-72
2022/07/03 00:12:27;;;;;;;12.82;8.93;;;;;;;;;;10421134;28;20374;-79
2022/07/03 00:17:27;;;;;;;18.33;9.15;;;;;;;;;;10434624;28;20206;-70
2022/07/03 00:22:29;;;;;;;13.52;9.52;;;;;;;;;;10436268;28;20051;-76
2022/07/03 00:27:32;;;;;;;15.77;9.75;;;;;;;;;;10439231;28;20104;-77
2022/07/03 00:32:32;;;;;;;13.00;10.85;;;;;;;;;;10436595;28;20550;-76
2022/07/03 00:37:32;;;;;;;14.27;10.00;;;;;;;;;;10428744;28;20082;-78
2022/07/03 00:42:36;;;;;;;14.93;9.93;;;;;;;;;;10425054;28;20020;-74
2022/07/03 00:47:36;;;;;;;11.52;9.40;;;;;;;;;;10443883;28;20021;-74
2022/07/03 00:52:38;;;;;;;14.17;9.40;;;;;;;;;;10441136;28;20016;-75
2022/07/03 00:57:43;;;;;;;13.15;9.50;;;;;;;;;;10431624;28;20025;-76
2022/07/03 01:02:43;;;;;;;11.95;9.15;;;;;;;;;;10451498;28;20017;-77
2022/07/03 01:08:02;;;;;;;11.73;8.13;;;;;;;;;;10440289;28;20070;-76
2022/07/03 01:13:08;;;;;;;12.45;9.18;;;;;;;;;;10438104;28;20598;-78
2022/07/03 01:18:14;;;;;;;14.25;8.93;;;;;;;;;;10439045;28;20107;-77
2022/07/03 01:23:23;;;;;;;10.93;8.68;;;;;;;;;;10438735;28;20458;-72
2022/07/03 01:28:24;;;;;;;13.00;8.88;;;;;;;;;;10440646;28;20021;-79
2022/07/03 01:33:25;;;;;;;11.70;8.98;;;;;;;;;;10440022;28;20021;-76
2022/07/03 01:38:29;;;;;;;14.70;8.65;;;;;;;;;;10436948;28;20124;-78
2022/07/03 01:43:31;;;;;;;13.40;8.73;;;;;;;;;;10438156;28;20021;-75
2022/07/03 01:48:32;;;;;;;10.85;8.52;;;;;;;;;;10438368;28;20131;-76
2022/07/03 01:53:33;;;;;;;13.07;8.77;;;;;;;;;;10438153;28;20382;-76
2022/07/03 01:58:33;;;;;;;15.40;7.93;;;;;;;;;;10438623;28;20156;-72
2022/07/03 02:03:34;;;;;;;10.93;8.48;;;;;;;;;;10437305;28;20518;-71
2022/07/03 02:08:50;;;;;;;9.18;7.78;;;;;;;;;;10437765;28;20021;-76
2022/07/03 02:13:51;;;;;;;10.63;7.97;;;;;;;;;;10437452;28;20023;-78
2022/07/03 02:19:03;;;;;;;11.98;7.90;;;;;;;;;;10437543;28;20029;-77
2022/07/03 02:24:12;;;;;;;16.17;10.30;;;;;;;;;;10437032;28;20130;-76
2022/07/03 02:29:15;;;;;;;13.63;8.45;;;;;;;;;;10437368;28;20082;-72
2022/07/03 02:34:16;;;;;;;13.30;8.82;;;;;;;;;;10438098;28;20365;-76
2022/07/03 02:39:25;;;;;;;9.50;7.40;;;;;;;;;;10437995;28;20109;-78
2022/07/03 02:44:42;;;;;;;12.13;7.90;;;;;;;;;;10436478;28;20120;-76
2022/07/03 02:50:03;;;;;;;13.13;8.75;;;;;;;;;;10434604;28;20025;-74
2022/07/03 02:55:22;;;;;;;12.05;9.00;;;;;;;;;;10436480;28;20025;-76
2022/07/03 03:00:23;;;;;;;11.68;8.85;;;;;;;;;;10435402;28;20118;-73
2022/07/03 03:05:24;;;;;;;13.18;8.48;;;;;;;;;;10435571;28;20098;-76
2022/07/03 03:10:24;;;;;;;12.55;8.65;;;;;;;;;;10436841;28;20021;-77
2022/07/03 03:15:29;;;;;;;11.77;7.93;;;;;;;;;;10436283;28;20506;-76
2022/07/03 03:20:33;;;;;;;9.75;8.32;;;;;;;;;;10435550;28;20049;-76
2022/07/03 03:25:33;;;;;;;20.33;9.88;;;;;;;;;;10437011;28;20087;-75
2022/07/03 03:30:35;;;;;;;12.73;8.52;;;;;;;;;;10435824;28;20017;-80
2022/07/03 03:35:35;;;;;;;12.38;8.25;;;;;;;;;;10439606;28;20057;-72
2022/07/03 03:40:36;;;;;;;12.68;8.20;;;;;;;;;;10442760;28;20029;-76
2022/07/03 03:45:36;;;;;;;13.80;8.93;;;;;;;;;;10431266;28;20548;-75
2022/07/03 03:50:36;;;;;;;14.25;8.65;;;;;;;;;;10418681;28;20438;-77
2022/07/03 03:55:37;;;;;;;13.88;8.63;;;;;;;;;;10427735;28;20037;-76
2022/07/03 04:00:37;;;;;;;14.47;8.97;;;;;;;;;;10434986;28;20494;-75
2022/07/03 04:05:37;;;;;;;13.65;8.43;;;;;;;;;;10438810;28;20090;-76
2022/07/03 04:10:37;;;;;;;14.93;7.82;;;;;;;;;;10438242;28;20039;-77
2022/07/03 04:15:38;;;;;;;20.20;8.45;;;;;;;;;;10437869;28;20025;-78
2022/07/03 04:20:38;;;;;;;15.25;9.43;;;;;;;;;;10434954;28;20807;-77
2022/07/03 04:25:38;;;;;;;13.63;9.88;;;;;;;;;;10436886;28;20112;-77
2022/07/03 04:30:39;;;;;;;12.15;8.68;;;;;;;;;;10432244;28;20020;-77
2022/07/03 04:35:39;;;;;;;12.23;8.70;;;;;;;;;;10436663;28;20021;-77
2022/07/03 04:40:39;;;;;;;10.55;9.02;;;;;;;;;;10435644;28;20504;-75
2022/07/03 04:45:39;;;;;;;11.93;7.57;;;;;;;;;;10437534;28;20090;-78
2022/07/03 04:50:40;;;;;;;11.38;8.25;;;;;;;;;;10435868;28;20471;-77
2022/07/03 04:55:40;;;;;;;15.83;7.70;;;;;;;;;;10435573;28;20021;-76
2022/07/03 05:00:42;;;;;;;9.97;6.37;;;;;;;;;;10434899;28;20060;-77
2022/07/03 05:05:42;;;;;;;8.23;6.78;;;;;;;;;;10423652;28;20522;-77
2022/07/03 05:10:43;;;;;;;11.63;6.77;;;;;;;;;;10434012;28;20028;-75
2022/07/03 05:15:43;;;;;;;11.00;6.68;;;;;;;;;;10434113;28;20048;-76
2022/07/03 05:20:43;;;;;;;7.70;6.03;;;;;;;;;;10428724;28;20065;-72
2022/07/03 05:25:43;;;;;;;9.50;6.18;;;;;;;;;;10420259;28;20028;-76
2022/07/03 05:30:44;;;;;;;7.32;5.55;;;;;;;;;;10423421;28;20529;-77
2022/07/03 05:35:44;;;;;;;7.78;5.80;;;;;;;;;;10428467;28;20033;-72
2022/07/03 05:40:45;;;;;;;10.27;6.65;;;;;;;;;;10414408;28;20079;-76
2022/07/03 05:45:45;;;;;;;13.23;6.72;;;;;;;;;;10424367;28;20029;-75
2022/07/03 05:50:46;;;;;;;10.77;6.32;;;;;;;;;;10422246;28;20047;-76
2022/07/03 05:55:46;;;;;;;11.25;6.68;;;;;;;;;;10415695;28;20486;-75
2022/07/03 06:00:46;;;;;;;12.87;8.53;;;;;;;;;;10419821;28;20033;-76
2022/07/03 06:05:46;;;;;;;14.05;7.55;;;;;;;;;;10415611;28;20487;-76
2022/07/03 06:10:47;;;;;;;11.35;7.38;;;;;;;;;;10413218;28;20067;-76
2022/07/03 06:15:47;;;;;;;13.95;7.65;;;;;;;;;;10417568;28;20049;-71
2022/07/03 06:20:47;;;;;;;12.80;6.95;;;;;;;;;;10420719;28;20061;-76
2022/07/03 06:25:47;;;;;;;12.60;6.95;;;;;;;;;;10419671;28;20029;-78
2022/07/03 06:30:48;;;;;;;10.47;6.47;;;;;;;;;;10417830;28;20025;-77
2022/07/03 06:35:48;;;;;;;9.90;7.30;;;;;;;;;;10415549;28;20052;-75
2022/07/03 06:40:49;;;;;;;10.00;5.87;;;;;;;;;;10426399;28;20056;-71
2022/07/03 06:45:49;;;;;;;15.15;6.90;;;;;;;;;;10403679;28;20061;-75
2022/07/03 06:50:49;;;;;;;12.05;5.93;;;;;;;;;;10416011;28;20028;-76
2022/07/03 06:55:49;;;;;;;9.05;5.57;;;;;;;;;;10412745;28;20722;-74
2022/07/03 07:00:50;;;;;;;8.25;5.28;;;;;;;;;;10408325;28;20029;-71
2022/07/03 07:05:50;;;;;;;8.82;4.93;;;;;;;;;;10422419;28;20061;-70
2022/07/03 07:10:50;;;;;;;6.13;4.63;;;;;;;;;;10430708;28;20032;-78
2022/07/03 07:15:50;;;;;;;12.63;6.00;;;;;;;;;;10433178;28;20021;-78
2022/07/03 07:20:51;;;;;;;6.72;5.15;;;;;;;;;;10435631;28;20043;-76
2022/07/03 07:25:51;;;;;;;9.32;5.80;;;;;;;;;;10434643;28;20529;-70
2022/07/03 07:30:55;;;;;;;6.33;4.83;;;;;;;;;;10432158;28;20049;-78
2022/07/03 07:35:55;;;;;;;6.45;5.53;;;;;;;;;;10434926;28;20030;-75
2022/07/03 07:40:55;;;;;;;7.28;4.85;;;;;;;;;;10435274;28;20048;-76
2022/07/03 07:45:55;;;;;;;12.52;5.82;;;;;;;;;;10434224;28;20025;-77
2022/07/03 07:50:57;;;;;;;5.63;4.80;;;;;;;;;;10429629;28;20017;-78
2022/07/03 07:55:57;;;;;;;8.63;5.57;;;;;;;;;;10429791;28;20063;-72
2022/07/03 08:06:17;;;;;;;9.20;4.57;;;;;;;;;;10428275;28;20033;-77
2022/07/03 08:11:17;;;;;;;7.10;4.45;;;;;;;;;;10424466;28;20037;-76
2022/07/03 08:16:17;;;;;;;8.77;4.22;;;;;;;;;;10422900;28;20090;-76
2022/07/03 08:21:18;;;;;;;4.43;4.00;;;;;;;;;;10421265;28;20560;-75
2022/07/03 08:26:18;;;;;;;6.47;4.18;;;;;;;;;;10425400;28;20036;-78
2022/07/03 08:31:18;;;;;;;7.13;4.20;;;;;;;;;;10420427;28;20829;-78
2022/07/03 08:36:19;;;;;;;5.73;3.97;;;;;;;;;;10419870;28;20025;-71
2022/07/03 08:41:20;;;;;;;6.45;3.90;;;;;;;;;;10423672;28;20518;-76
2022/07/03 08:46:20;;;;;;;6.97;3.67;;;;;;;;;;10428911;28;20029;-77
2022/07/03 08:51:24;;;;;;;5.83;3.90;;;;;;;;;;10424490;28;20087;-77
2022/07/03 08:56:25;;;;;;;5.38;3.38;;;;;;;;;;10439583;28;20021;-76
2022/07/03 09:01:26;;;;;;;3.92;3.17;;;;;;;;;;10425626;28;20395;-77
2022/07/03 09:06:33;;;;;;;6.68;3.42;;;;;;;;;;10419629;28;20029;-77
2022/07/03 09:11:35;;;;;;;7.10;3.35;;;;;;;;;;10421814;28;20048;-75
2022/07/03 09:16:36;;;;;;;3.65;3.33;;;;;;;;;;10410813;28;20030;-78
2022/07/03 09:21:40;;;;;;;5.53;3.60;;;;;;;;;;10415051;28;20056;-78
2022/07/03 09:26:49;;;;;;;4.60;3.10;;;;;;;;;;10430179;28;20491;-72
2022/07/03 09:31:55;;;;;;;7.57;3.30;;;;;;;;;;10429318;28;20020;-76
2022/07/03 09:36:56;;;;;;;4.13;2.85;;;;;;;;;;10528532;23;20068;-76
2022/07/03 09:42:03;;;;;;;5.00;2.65;;;;;;;;;;10424033;28;20028;-78
2022/07/03 09:47:10;;;;;;;3.72;2.70;;;;;;;;;;10427042;28;20565;-78
2022/07/03 09:52:28;;;;;;;3.30;2.75;;;;;;;;;;10432101;28;20028;-76
2022/07/03 09:57:32;;;;;;;6.70;3.30;;;;;;;;;;10434685;28;20036;-76
2022/07/03 10:02:32;;;;;;;7.38;2.55;;;;;;;;;;10445033;28;20502;-78
2022/07/03 10:07:49;;;;;;;4.40;3.20;;;;;;;;;;10452464;28;20033;-71
2022/07/03 10:12:52;;;;;;;6.18;2.35;;;;;;;;;;10451316;28;20029;-76
2022/07/03 10:17:53;;;;;;;3.05;2.38;;;;;;;;;;10450267;28;20029;-77
2022/07/03 10:22:59;;;;;;;4.32;1.98;;;;;;;;;;10456954;28;20102;-76
2022/07/03 10:28:04;;;;;;;3.03;2.20;;;;;;;;;;10459767;28;20056;-72
2022/07/03 10:33:05;;;;;;;3.80;2.10;;;;;;;;;;10456659;28;20035;-76
2022/07/03 10:38:14;;;;;;;5.33;2.27;;;;;;;;;;10453151;28;20415;-76
2022/07/03 10:48:59;;;;;;;5.55;2.67;;;;;;;;;;10453519;28;20028;-73
2022/07/03 10:54:14;;;;;;;3.10;2.78;;;;;;;;;;10451026;28;20021;-73
2022/07/03 10:59:14;;;;;;;6.22;3.78;;;;;;;;;;10456839;28;20028;-75
2022/07/03 11:04:14;;;;;;;7.93;3.20;;;;;;;;;;10449954;28;20020;-76
2022/07/03 11:09:15;;;;;;;6.10;3.67;;;;;;;;;;10451001;28;20047;-76
2022/07/03 11:14:19;;;;;;;5.10;3.45;;;;;;;;;;10450984;28;20078;-76
2022/07/03 11:19:25;;;;;;;8.77;3.65;;;;;;;;;;10447424;28;20499;-77
2022/07/03 11:24:28;;;;;;;5.00;3.55;;;;;;;;;;10445995;28;20064;-77
2022/07/03 11:29:29;;;;;;;7.07;3.83;;;;;;;;;;10450011;28;20068;-77
2022/07/03 11:34:41;;;;;;;5.07;3.53;;;;;;;;;;10451012;28;20495;-72
2022/07/03 11:39:42;;;;;;;6.82;3.70;;;;;;;;;;10449982;28;20041;-73
2022/07/03 11:44:42;;;;;;;4.55;3.42;;;;;;;;;;10450924;28;20027;-71
2022/07/03 11:49:49;;;;;;;4.40;3.70;;;;;;;;;;10450682;28;20032;-73
2022/07/03 11:54:49;;;;;;;;;;;;;;;;;;10452146;28;20024;-78
2022/07/03 11:59:51;;;;;;;4.50;3.25;;;;;;;;;;10457813;28;20480;-72
2022/07/03 12:04:51;;;;;;;6.38;3.65;;;;;;;;;;10455720;28;20092;-77
2022/07/03 12:09:51;;;;;;;14.48;3.63;;;;;;;;;;10456425;28;20025;-78
2022/07/03 12:14:55;;;;;;;5.78;4.22;;;;;;;;;;10456291;28;20083;-76
2022/07/03 12:19:56;;;;;;;5.10;4.18;;;;;;;;;;10482514;28;20024;-75
2022/07/03 12:25:04;;;;;;;9.18;4.40;;;;;;;;;;10456085;28;20042;-72
2022/07/03 12:30:09;;;;;;;8.38;3.95;;;;;;;;;;10474336;28;20670;-72
2022/07/03 12:35:10;;;;;;;9.00;4.18;;;;;;;;;;10462858;28;20035;-78
2022/07/03 12:40:11;;;;;;;7.72;3.85;;;;;;;;;;10455548;28;20088;-72
2022/07/03 12:45:13;;;;;;;9.15;3.97;;;;;;;;;;10450073;28;20032;-77
2022/07/03 12:50:15;;;;;;;4.03;3.63;;;;;;;;;;10448140;28;20055;-73
2022/07/03 12:55:28;;;;;;;6.20;3.92;;;;;;;;;;10452121;28;20112;-77
2022/07/03 13:00:29;;;;;;;8.65;3.80;;;;;;;;;;10452159;28;20031;-76
2022/07/03 13:05:29;;;;;;;5.95;4.03;;;;;;;;;;10447332;28;20485;-71
2022/07/03 13:10:30;;;;;;;7.28;4.38;;;;;;;;;;10452947;28;20070;-77
2022/07/03 13:15:30;;;;;;;4.50;3.60;;;;;;;;;;10450372;28;20457;-77
2022/07/03 13:20:31;;;;;;;14.70;4.32;;;;;;;;;;10447664;28;20547;-72
2022/07/03 13:25:33;;;;;;;10.30;5.30;;;;;;;;;;10452089;28;20563;-72
2022/07/03 13:30:34;;;;;;;9.90;4.50;;;;;;;;;;10451454;28;20470;-77
2022/07/03 13:35:34;;;;;;;8.43;5.03;;;;;;;;;;10452107;28;20091;-77
2022/07/03 13:40:36;;;;;;;9.43;4.15;;;;;;;;;;10455717;28;20021;-75
2022/07/03 13:45:36;;;;;;;5.95;4.20;;;;;;;;;;10452273;28;20032;-71
2022/07/03 13:50:37;;;;;;;7.20;4.32;;;;;;;;;;10454425;28;20032;-72
2022/07/03 13:55:37;;;;;;;7.00;4.53;;;;;;;;;;10450886;28;20012;-75
2022/07/03 14:00:37;;;;;;;6.50;3.92;;;;;;;;;;10451384;28;20021;-79
2022/07/03 14:05:37;;;;;;;9.48;4.60;;;;;;;;;;10451092;28;20040;-75
2022/07/03 14:10:38;;;;;;;9.80;4.60;;;;;;;;;;10448431;28;20029;-75
2022/07/03 14:15:38;;;;;;;13.73;4.32;;;;;;;;;;10445187;28;20020;-76
2022/07/03 14:20:38;;;;;;;6.30;4.47;;;;;;;;;;10445870;28;20060;-77
2022/07/03 14:25:39;;;;;;;13.60;5.10;;;;;;;;;;10447136;28;20028;-71
2022/07/03 14:35:59;;;;;;;6.22;4.47;;;;;;;;;;10452351;28;20048;-75
2022/07/03 14:40:59;;;;;;;12.00;4.70;;;;;;;;;;10450992;28;20346;-72
2022/07/03 14:45:59;;;;;;;6.30;4.47;;;;;;;;;;10452581;28;20017;-72
2022/07/03 14:56:08;;;;;;;6.23;4.33;;;;;;;;;;10430068;28;20076;-70
2022/07/03 15:01:10;;;;;;;8.73;4.30;;;;;;;;;;10395107;28;20083;-72
2022/07/03 15:06:11;;;;;;;7.15;3.90;;;;;;;;;;10369468;28;20423;-78
2022/07/03 15:16:38;;;;;;;5.03;4.10;;;;;;;;;;10439892;28;20402;-77
2022/07/03 15:21:39;;;;;;;9.45;4.43;;;;;;;;;;10423531;28;20024;-76
2022/07/03 15:26:40;;;;;;;5.82;4.15;;;;;;;;;;10421005;28;20029;-77
2022/07/03 15:31:40;;;;;;;6.47;4.70;;;;;;;;;;10432659;28;20024;-75
2022/07/03 15:37:01;;;;;;;6.77;4.63;;;;;;;;;;10434900;28;20055;-77
2022/07/03 15:42:01;;;;;;;9.45;4.68;;;;;;;;;;10424516;28;20539;-76
2022/07/03 15:47:17;;;;;;;7.90;4.07;;;;;;;;;;10441763;28;20106;-74
2022/07/03 15:52:20;;;;;;;6.38;4.22;;;;;;;;;;10443008;28;20020;-74
2022/07/03 15:57:24;;;;;;;8.98;4.68;;;;;;;;;;10456469;28;20029;-76
2022/07/03 16:02:26;;;;;;;9.98;5.50;;;;;;;;;;10460336;28;20275;-77
2022/07/03 16:07:26;;;;;;;7.80;4.90;;;;;;;;;;10435268;28;20021;-73
2022/07/03 16:12:27;;;;;;;6.03;5.00;;;;;;;;;;10453309;28;20383;-77
2022/07/03 16:17:31;;;;;;;8.13;4.40;;;;;;;;;;10439538;28;20031;-71
2022/07/03 16:22:33;;;;;;;8.55;4.90;;;;;;;;;;10433888;28;20398;-78
2022/07/03 16:27:34;;;;;;;8.93;5.32;;;;;;;;;;10431587;28;20025;-77
2022/07/03 16:32:39;;;;;;;11.82;5.03;;;;;;;;;;10435664;28;20537;-76
2022/07/03 16:37:42;;;;;;;5.90;4.70;;;;;;;;;;10420769;28;20025;-77
2022/07/03 16:42:43;;;;;;;6.70;4.53;;;;;;;;;;10423153;28;20021;-78
2022/07/03 16:47:45;;;;;;;10.07;5.75;;;;;;;;;;10424859;28;20028;-77
2022/07/03 16:52:46;;;;;;;8.23;5.53;;;;;;;;;;10425827;28;20487;-77
2022/07/03 16:57:51;;;;;;;6.97;5.20;;;;;;;;;;10440176;28;20020;-77
2022/07/03 17:02:52;;;;;;;14.27;5.82;;;;;;;;;;10417737;28;20414;-77
2022/07/03 17:07:54;;;;;;;10.38;4.93;;;;;;;;;;10441087;28;20036;-77
2022/07/03 17:12:55;;;;;;;7.97;5.95;;;;;;;;;;10435201;28;20068;-76
2022/07/03 17:17:57;;;;;;;7.32;5.60;;;;;;;;;;10426871;28;20032;-77
2022/07/03 17:23:05;;;;;;;8.02;5.88;;;;;;;;;;10422878;28;20102;-77
2022/07/03 17:28:05;;;;;;;;;;;;;;;;;;10420904;28;20407;-78
2022/07/03 17:33:07;;;;;;;9.30;5.63;;;;;;;;;;10417637;28;19959;-80
2022/07/03 17:38:09;;;;;;;8.02;6.40;;;;;;;;;;10416716;28;20128;-77
2022/07/03 17:43:09;;;;;;;10.82;6.78;;;;;;;;;;10419648;28;20025;-76
2022/07/03 17:48:10;;;;;;;8.45;5.85;;;;;;;;;;10414118;28;20036;-77
2022/07/03 17:53:14;;;;;;;12.07;5.60;;;;;;;;;;10434458;28;20419;-77
2022/07/03 17:58:14;;;;;;;13.27;6.30;;;;;;;;;;10412422;28;20028;-78
2022/07/03 18:03:15;;;;;;;10.18;6.07;;;;;;;;;;10420783;28;20115;-78
2022/07/03 18:08:21;;;;;;;9.55;6.45;;;;;;;;;;10442169;28;20029;-76
2022/07/03 18:13:24;;;;;;;7.45;5.90;;;;;;;;;;10417329;28;20550;-72
2022/07/03 18:18:35;;;;;;;7.90;6.63;;;;;;;;;;10418053;28;20040;-79
2022/07/03 18:23:39;;;;;;;13.10;7.10;;;;;;;;;;10422425;28;20458;-76
2022/07/03 18:28:40;;;;;;;14.68;7.13;;;;;;;;;;10422561;28;20028;-82
2022/07/03 18:33:40;;;;;;;11.70;6.63;;;;;;;;;;10413850;28;20029;-77
2022/07/03 18:38:44;;;;;;;8.65;6.65;;;;;;;;;;10404322;28;20025;-78
2022/07/03 18:43:45;;;;;;;10.68;6.65;;;;;;;;;;10433272;28;20036;-77
2022/07/03 18:48:45;;;;;;;11.80;7.10;;;;;;;;;;10416471;28;20441;-77
2022/07/03 18:53:48;;;;;;;11.73;7.50;;;;;;;;;;10395647;28;20455;-76
2022/07/03 18:58:53;;;;;;;11.02;8.15;;;;;;;;;;10413905;28;20128;-72
2022/07/03 19:04:00;;;;;;;12.75;6.97;;;;;;;;;;10406992;28;20021;-72
2022/07/03 19:09:03;;;;;;;9.90;7.33;;;;;;;;;;10429943;28;20139;-73
2022/07/03 19:14:09;;;;;;;9.40;7.00;;;;;;;;;;10403441;28;20032;-73
2022/07/03 19:19:11;;;;;;;13.27;7.20;;;;;;;;;;10418988;28;20392;-77
2022/07/03 19:24:11;;;;;;;10.00;7.10;;;;;;;;;;10430101;28;20095;-76
2022/07/03 19:29:12;;;;;;;12.57;7.07;;;;;;;;;;10425669;28;20025;-71
2022/07/03 19:34:12;;;;;;;10.10;6.83;;;;;;;;;;10426544;28;20025;-72
2022/07/03 19:39:13;;;;;;;11.43;6.55;;;;;;;;;;10432323;28;20097;-73
2022/07/03 19:44:14;;;;;;;11.50;7.13;;;;;;;;;;10429749;28;20534;-72
2022/07/03 19:49:15;;;;;;;9.10;6.95;;;;;;;;;;10434983;28;20058;-76
2022/07/03 19:54:15;;;;;;;9.02;7.30;;;;;;;;;;10426304;28;20029;-78
2022/07/03 19:59:15;;;;;;;14.23;7.90;;;;;;;;;;10441733;28;20024;-76
2022/07/03 20:04:15;;;;;;;7.15;6.43;;;;;;;;;;10443636;28;20480;-76
2022/07/03 20:09:21;;;;;;;12.65;7.15;;;;;;;;;;10417556;28;20044;-78
2022/07/03 20:14:23;;;;;;;15.23;7.47;;;;;;;;;;10413378;28;20060;-76
2022/07/03 20:19:23;;;;;;;9.18;6.93;;;;;;;;;;10435708;28;20031;-76
2022/07/03 20:24:35;;;;;;;10.98;7.50;;;;;;;;;;10426759;28;20017;-77
2022/07/03 20:29:37;;;;;;;7.85;6.57;;;;;;;;;;10408607;28;20574;-77
2022/07/03 20:34:38;;;;;;;14.98;7.45;;;;;;;;;;10422277;28;20016;-76
2022/07/03 20:39:39;;;;;;;10.15;6.85;;;;;;;;;;10425679;28;20013;-74
2022/07/03 20:44:40;;;;;;;9.43;7.35;;;;;;;;;;10425450;28;20083;-76
2022/07/03 20:49:40;;;;;;;12.63;7.55;;;;;;;;;;10441802;28;20671;-77
2022/07/03 20:54:40;;;;;;;8.55;7.03;;;;;;;;;;10418919;28;20144;-77
2022/07/03 20:59:40;;;;;;;12.80;8.07;;;;;;;;;;10399015;28;20017;-77
2022/07/03 21:04:41;;;;;;;14.65;8.45;;;;;;;;;;10435887;28;20518;-76
2022/07/03 21:09:41;;;;;;;14.25;8.30;;;;;;;;;;10384476;28;20694;-80
2022/07/03 21:14:42;;;;;;;11.60;8.43;;;;;;;;;;10383309;28;20030;-76
2022/07/03 21:19:42;;;;;;;13.83;9.33;;;;;;;;;;10413938;28;20032;-76
2022/07/03 21:24:42;;;;;;;12.70;8.30;;;;;;;;;;10385049;28;20021;-76
2022/07/03 21:29:45;;;;;;;13.47;8.00;;;;;;;;;;10416570;28;20029;-80
2022/07/03 21:34:45;;;;;;;16.23;8.73;;;;;;;;;;10384177;28;20435;-76
2022/07/03 21:39:45;;;;;;;13.77;7.30;;;;;;;;;;10399998;28;20036;-78
2022/07/03 21:44:45;;;;;;;8.30;6.22;;;;;;;;;;10390140;28;20026;-76
2022/07/03 21:49:46;;;;;;;9.38;6.50;;;;;;;;;;10421488;28;20019;-76
2022/07/03 21:54:46;;;;;;;10.25;6.30;;;;;;;;;;10440258;28;20025;-77
2022/07/03 21:59:46;;;;;;;6.85;5.97;;;;;;;;;;10414863;28;20028;-77
2022/07/03 22:04:46;;;;;;;9.13;6.50;;;;;;;;;;10420171;28;20024;-76
2022/07/03 22:09:47;;;;;;;8.52;5.78;;;;;;;;;;10421984;28;20116;-77
2022/07/03 22:14:47;;;;;;;9.48;6.55;;;;;;;;;;10415355;28;20044;-77
2022/07/03 22:19:47;;;;;;;7.25;5.50;;;;;;;;;;10408975;28;20013;-75
2022/07/03 22:24:48;;;;;;;8.23;5.40;;;;;;;;;;10413368;28;20018;-76
2022/07/03 22:29:48;;;;;;;5.78;4.90;;;;;;;;;;10381693;28;20387;-72
2022/07/03 22:34:49;;;;;;;13.27;5.10;;;;;;;;;;10398598;28;20017;-72
2022/07/03 22:39:49;;;;;;;9.18;5.03;;;;;;;;;;10420215;28;20364;-76
2022/07/03 22:44:49;;;;;;;6.47;4.57;;;;;;;;;;10415213;28;20013;-75
2022/07/03 22:49:50;;;;;;;8.60;4.78;;;;;;;;;;10399948;28;20060;-77
2022/07/03 22:54:50;;;;;;;19.00;4.90;;;;;;;;;;10412197;28;20446;-76
2022/07/03 22:59:50;;;;;;;7.85;4.75;;;;;;;;;;10380758;28;20672;-76
2022/07/03 23:04:52;;;;;;;5.60;4.05;;;;;;;;;;10397742;28;20017;-72
2022/07/03 23:09:52;;;;;;;7.10;3.95;;;;;;;;;;10413039;28;20042;-77
2022/07/03 23:14:52;;;;;;;5.93;4.07;;;;;;;;;;10413414;28;20029;-72
2022/07/03 23:19:53;;;;;;;6.63;4.05;;;;;;;;;;10382574;28;20435;-76
2022/07/03 23:24:53;;;;;;;4.97;4.45;;;;;;;;;;10412588;28;20022;-77
2022/07/03 23:29:53;;;;;;;9.95;4.57;;;;;;;;;;10434708;28;20032;-76
2022/07/03 23:34:54;;;;;;;6.13;3.75;;;;;;;;;;10397991;28;20028;-75
2022/07/03 23:39:54;;;;;;;5.43;4.15;;;;;;;;;;10379651;28;20029;-75
2022/07/03 23:44:54;;;;;;;7.32;3.63;;;;;;;;;;10379101;28;20017;-77
2022/07/03 23:55:13;;;;;;;7.93;4.30;;;;;;;;;;10405182;28;20104;-77
